Time;durP1;ratioP1;P1;durP2;ratioP2;P2;SDS_P1;SDS_P2;PMS_P1;PMS_P2;Temp;Humidity;BMP_temperature;BMP_pressure;BME280_temperature;BME280_humidity;BME280_pressure;Samples;Min_cycle;Max_cycle;Signal;HPM_P1;HPM_P2
2022/06/11 00:01:27;;;;;;;8.88;4.75;;;16.80;32.70;;;;;;4964781;28;20121;-86
2022/06/11 00:03:58;;;;;;;8.77;4.35;;;16.80;1.00;;;;;;4965842;28;20046;-86
2022/06/11 00:06:26;;;;;;;9.27;4.43;;;16.80;22.80;;;;;;4967440;28;20042;-86
2022/06/11 00:08:52;;;;;;;7.30;3.97;;;16.70;1.00;;;;;;4966498;28;20470;-87
2022/06/11 00:11:18;;;;;;;6.00;3.63;;;16.80;1.00;;;;;;4964306;28;20048;-86
2022/06/11 00:13:44;;;;;;;6.97;3.10;;;16.90;1.00;;;;;;4982017;28;20486;-86
2022/06/11 00:16:12;;;;;;;5.57;2.75;;;16.90;99.90;;;;;;4966684;28;20552;-86
2022/06/11 00:18:43;;;;;;;9.48;3.55;;;16.90;99.90;;;;;;4964438;28;20308;-86
2022/06/11 00:21:11;;;;;;;5.95;2.95;;;16.90;99.90;;;;;;4978134;28;20522;-86
2022/06/11 00:23:37;;;;;;;6.68;2.63;;;16.90;99.90;;;;;;4949985;28;20042;-86
2022/06/11 00:26:04;;;;;;;6.10;2.60;;;16.90;99.90;;;;;;4965143;28;20287;-87
2022/06/11 00:28:30;;;;;;;8.43;2.90;;;16.90;99.90;;;;;;4968909;28;20046;-86
2022/06/11 00:30:56;;;;;;;6.68;2.60;;;16.70;99.90;;;;;;4963166;28;20050;-86
2022/06/11 00:33:23;;;;;;;5.70;2.40;;;16.60;99.90;;;;;;4966574;28;20050;-86
2022/06/11 00:35:50;;;;;;;8.10;2.80;;;16.50;99.90;;;;;;4968546;28;20098;-87
2022/06/11 00:38:17;;;;;;;6.20;2.28;;;16.50;99.90;;;;;;4966655;28;20035;-87
2022/06/11 00:40:49;;;;;;;8.48;2.70;;;16.40;99.90;;;;;;4965405;28;20045;-87
2022/06/11 00:43:17;;;;;;;6.65;2.50;;;16.30;99.90;;;;;;4965311;28;20061;-87
2022/06/11 00:46:00;;;;;;;7.28;2.40;;;16.20;99.90;;;;;;4978833;28;20767;-86
2022/06/11 00:48:36;;;;;;;9.63;2.67;;;16.20;99.90;;;;;;4994188;28;20401;-86
2022/06/11 00:51:12;;;;;;;6.43;2.40;;;16.10;99.90;;;;;;4985746;28;20043;-86
2022/06/11 00:53:46;;;;;;;4.75;2.13;;;16.00;99.90;;;;;;4970909;28;20355;-86
2022/06/11 00:56:25;;;;;;;9.35;2.70;;;15.90;99.90;;;;;;4969617;28;20043;-86
2022/06/11 00:58:54;;;;;;;8.85;2.35;;;15.90;99.90;;;;;;4996551;28;20041;-86
2022/06/11 01:01:22;;;;;;;7.88;2.65;;;15.80;99.90;;;;;;4966614;28;20092;-86
2022/06/11 01:03:51;;;;;;;13.20;2.38;;;15.70;99.90;;;;;;4983706;28;20047;-86
2022/06/11 01:06:29;;;;;;;6.22;2.30;;;15.70;99.90;;;;;;4962984;28;20042;-86
2022/06/11 01:09:07;;;;;;;7.20;2.50;;;15.80;99.90;;;;;;4967259;28;20042;-86
2022/06/11 01:11:55;;;;;;;5.53;2.00;;;15.70;99.90;;;;;;4976094;28;20047;-86
2022/06/11 01:14:44;;;;;;;5.97;2.10;;;15.60;99.90;;;;;;4975968;28;20181;-86
2022/06/11 01:17:30;;;;;;;10.00;2.67;;;15.50;99.90;;;;;;4957244;28;20064;-86
2022/06/11 01:20:05;;;;;;;9.30;2.55;;;15.40;99.90;;;;;;4967194;28;20051;-86
2022/06/11 01:23:17;;;;;;;6.80;2.30;;;15.50;99.90;;;;;;4946793;28;20112;-86
2022/06/11 01:26:04;;;;;;;6.90;2.25;;;15.40;99.90;;;;;;4967121;28;20589;-86
2022/06/11 01:28:52;;;;;;;9.07;2.58;;;15.40;99.90;;;;;;4968898;28;20156;-86
2022/06/11 01:31:22;;;;;;;5.63;2.20;;;15.40;99.90;;;;;;4964324;28;20347;-84
2022/06/11 01:34:14;;;;;;;5.80;2.10;;;15.30;99.90;;;;;;4965240;28;20049;-86
2022/06/11 01:36:43;;;;;;;8.13;2.47;;;15.20;99.90;;;;;;4962381;28;20129;-87
2022/06/11 01:39:32;;;;;;;6.30;2.20;;;15.20;99.90;;;;;;4969966;28;20462;-86
2022/06/11 01:42:12;;;;;;;7.68;2.70;;;15.00;99.90;;;;;;4961555;28;20463;-86
2022/06/11 01:44:40;;;;;;;6.78;2.20;;;14.90;99.90;;;;;;4994083;28;20169;-86
2022/06/11 01:47:06;;;;;;;7.72;2.58;;;14.80;99.90;;;;;;4982066;28;20047;-86
2022/06/11 01:49:43;;;;;;;8.27;2.67;;;14.70;99.90;;;;;;4968746;28;20178;-86
2022/06/11 01:52:40;;;;;;;6.63;2.15;;;14.60;99.90;;;;;;4994880;28;20093;-86
2022/06/11 01:55:11;;;;;;;8.63;2.47;;;14.50;99.90;;;;;;4969303;28;20046;-86
2022/06/11 01:58:19;;;;;;;5.97;2.45;;;14.40;99.90;;;;;;4965972;28;20060;-86
2022/06/11 02:00:52;;;;;;;8.18;2.60;;;14.40;99.90;;;;;;4965863;28;20050;-86
2022/06/11 02:03:37;;;;;;;9.50;2.38;;;14.40;99.90;;;;;;4964867;28;20112;-85
2022/06/11 02:06:21;;;;;;;6.10;2.47;;;14.40;99.90;;;;;;4990451;28;20046;-86
2022/06/11 02:08:56;;;;;;;7.80;2.78;;;14.40;99.90;;;;;;4963515;28;20050;-86
2022/06/11 02:11:31;;;;;;;9.35;3.08;;;14.40;99.90;;;;;;4963810;28;20069;-86
2022/06/11 02:14:09;;;;;;;8.82;2.40;;;14.40;99.90;;;;;;4980082;28;20045;-86
2022/06/11 02:16:41;;;;;;;7.50;2.72;;;14.40;1.00;;;;;;4990010;28;20043;-86
2022/06/11 02:19:12;;;;;;;4.82;2.30;;;14.40;1.00;;;;;;4961411;28;20331;-86
2022/06/11 02:21:47;;;;;;;6.72;2.28;;;14.30;1.00;;;;;;4950475;28;20096;-86
2022/06/11 02:24:54;;;;;;;7.00;2.70;;;14.30;99.90;;;;;;4963263;28;20316;-87
2022/06/11 02:27:25;;;;;;;9.90;2.78;;;14.20;1.00;;;;;;4947085;28;20055;-86
2022/06/11 02:29:53;;;;;;;7.90;2.47;;;14.10;1.00;;;;;;4967851;28;20050;-86
2022/06/11 02:32:21;;;;;;;5.88;2.30;;;14.10;1.00;;;;;;4964868;28;20168;-86
2022/06/11 02:34:55;;;;;;;8.68;3.10;;;14.00;1.00;;;;;;4964398;28;20102;-87
2022/06/11 02:37:23;;;;;;;8.30;2.80;;;14.00;1.00;;;;;;4963878;28;20038;-86
2022/06/11 02:39:51;;;;;;;7.22;2.85;;;14.00;1.00;;;;;;4962014;28;20051;-86
2022/06/11 02:42:20;;;;;;;6.57;3.15;;;13.90;1.00;;;;;;4980891;28;20050;-86
2022/06/11 02:44:46;;;;;;;10.40;2.80;;;13.90;1.00;;;;;;4961435;28;20047;-86
2022/06/11 02:47:18;;;;;;;9.02;3.22;;;13.80;1.00;;;;;;4965003;28;20501;-86
2022/06/11 02:49:44;;;;;;;7.00;2.83;;;13.90;1.00;;;;;;4945391;28;20043;-86
2022/06/11 02:52:17;;;;;;;7.90;2.50;;;13.80;7.20;;;;;;4969198;28;20412;-86
2022/06/11 02:54:45;;;;;;;9.90;3.30;;;13.80;22.70;;;;;;4993122;28;20034;-86
2022/06/11 02:57:17;;;;;;;10.65;3.10;;;13.70;63.80;;;;;;4975598;28;20043;-86
2022/06/11 02:59:47;;;;;;;9.07;3.30;;;13.70;99.90;;;;;;4965355;28;20055;-86
2022/06/11 03:02:13;;;;;;;11.77;3.63;;;13.70;99.90;;;;;;4965533;28;20065;-87
2022/06/11 03:04:39;;;;;;;11.23;3.97;;;13.70;99.90;;;;;;4977123;28;20546;-86
2022/06/11 03:07:05;;;;;;;12.55;3.80;;;13.80;99.90;;;;;;4976219;28;20042;-85
2022/06/11 03:09:33;;;;;;;9.93;4.47;;;13.80;99.90;;;;;;4963835;28;20398;-86
2022/06/11 03:12:04;;;;;;;9.27;3.95;;;13.80;99.90;;;;;;4965039;28;20046;-86
2022/06/11 03:14:29;;;;;;;9.82;3.47;;;13.70;99.90;;;;;;4965745;28;20030;-87
2022/06/11 03:16:55;;;;;;;10.18;4.05;;;13.70;99.90;;;;;;4966118;28;20507;-87
2022/06/11 03:19:22;;;;;;;13.20;5.03;;;13.70;99.90;;;;;;4965736;28;20056;-86
2022/06/11 03:21:50;;;;;;;13.25;4.82;;;13.90;99.90;;;;;;4968678;28;20034;-86
2022/06/11 03:24:17;;;;;;;13.25;4.50;;;13.90;99.90;;;;;;4969839;28;20518;-86
2022/06/11 03:26:47;;;;;;;14.98;5.88;;;13.90;99.90;;;;;;4983424;28;20046;-86
2022/06/11 03:29:15;;;;;;;10.77;5.38;;;13.90;99.90;;;;;;4963838;28;20577;-87
2022/06/11 03:31:42;;;;;;;14.80;6.35;;;14.00;99.90;;;;;;4962891;28;20042;-87
2022/06/11 03:34:08;;;;;;;9.52;5.22;;;13.90;99.90;;;;;;4964563;28;20126;-87
2022/06/11 03:36:34;;;;;;;10.80;5.43;;;14.10;99.90;;;;;;4967313;28;20154;-86
2022/06/11 03:39:00;;;;;;;11.10;5.10;;;14.00;99.90;;;;;;4964909;28;20514;-86
2022/06/11 03:41:27;;;;;;;13.55;5.68;;;14.10;99.90;;;;;;4964060;28;20043;-86
2022/06/11 03:43:53;;;;;;;12.65;5.28;;;14.20;99.90;;;;;;4958191;28;20133;-87
2022/06/11 03:46:20;;;;;;;15.00;5.30;;;14.10;99.90;;;;;;4959337;28;20043;-86
2022/06/11 03:48:46;;;;;;;13.63;5.35;;;14.10;99.90;;;;;;4979314;28;20063;-87
2022/06/11 03:51:15;;;;;;;15.07;5.32;;;14.10;99.90;;;;;;4966544;28;20097;-86
2022/06/11 03:53:42;;;;;;;10.27;4.85;;;14.10;99.90;;;;;;4966278;28;20039;-87
2022/06/11 03:56:09;;;;;;;12.10;5.15;;;14.20;99.90;;;;;;4962787;28;20046;-86
2022/06/11 03:58:36;;;;;;;12.68;5.70;;;14.20;99.90;;;;;;4967827;28;20101;-87
2022/06/11 04:01:14;;;;;;;11.25;5.28;;;14.20;99.90;;;;;;4965025;28;20047;-87
2022/06/11 04:04:01;;;;;;;16.50;6.20;;;14.30;99.90;;;;;;4964234;28;20379;-86
2022/06/11 04:06:45;;;;;;;10.70;5.35;;;14.30;99.90;;;;;;4978784;28;20046;-86
2022/06/11 04:09:16;;;;;;;12.60;5.00;;;14.40;99.90;;;;;;4993612;28;20134;-86
2022/06/11 04:11:42;;;;;;;11.15;4.78;;;14.40;99.90;;;;;;4964080;28;20042;-86
2022/06/11 04:14:12;;;;;;;12.70;5.18;;;14.50;99.90;;;;;;4964508;28;20649;-86
2022/06/11 04:16:57;;;;;;;10.05;4.95;;;14.50;99.90;;;;;;4969221;28;20038;-86
2022/06/11 04:19:27;;;;;;;13.50;5.82;;;14.60;99.90;;;;;;4983037;28;20051;-86
2022/06/11 04:21:55;;;;;;;14.02;5.32;;;14.60;99.90;;;;;;4969638;28;20114;-87
2022/06/11 04:24:21;;;;;;;14.93;4.80;;;14.70;99.90;;;;;;4971323;28;20038;-86
2022/06/11 04:26:49;;;;;;;13.13;4.75;;;14.70;99.90;;;;;;4964326;28;20393;-86
2022/06/11 04:29:18;;;;;;;16.92;5.25;;;14.80;99.90;;;;;;4991925;28;20061;-86
2022/06/11 04:31:49;;;;;;;12.90;4.57;;;14.90;99.90;;;;;;4948658;28;20059;-87
2022/06/11 04:34:16;;;;;;;14.20;4.38;;;15.00;99.90;;;;;;4965321;28;20042;-86
2022/06/11 04:36:45;;;;;;;11.25;3.95;;;15.00;33.30;;;;;;4968671;28;20045;-86
2022/06/11 04:39:12;;;;;;;12.23;4.85;;;15.00;56.70;;;;;;4962379;28;20466;-87
2022/06/11 04:41:38;;;;;;;14.00;4.25;;;15.10;49.10;;;;;;4963961;28;20585;-86
2022/06/11 04:44:04;;;;;;;10.93;5.30;;;15.20;45.00;;;;;;4962602;28;20167;-86
2022/06/11 04:46:31;;;;;;;14.70;6.55;;;15.30;90.50;;;;;;4974758;28;20039;-86
2022/06/11 04:48:56;;;;;;;14.98;7.32;;;15.30;99.90;;;;;;4965879;28;20565;-87
2022/06/11 04:51:22;;;;;;;14.25;7.45;;;15.50;99.90;;;;;;4963562;28;20065;-86
2022/06/11 04:53:48;;;;;;;11.23;7.00;;;15.40;99.90;;;;;;4963924;28;20462;-86
2022/06/11 04:56:18;;;;;;;15.52;7.43;;;15.50;99.90;;;;;;4975792;28;20120;-86
2022/06/11 04:58:45;;;;;;;15.88;6.35;;;15.60;99.90;;;;;;4964906;28;20061;-87
2022/06/11 05:01:12;;;;;;;16.50;6.72;;;15.60;99.90;;;;;;4963753;28;20057;-86
2022/06/11 05:03:38;;;;;;;15.43;6.10;;;15.70;98.80;;;;;;4963234;28;20058;-86
2022/06/11 05:06:04;;;;;;;13.38;5.43;;;15.70;54.10;;;;;;4962003;28;20034;-86
2022/06/11 05:08:31;;;;;;;15.88;5.75;;;15.90;1.00;;;;;;4961239;28;20654;-85
2022/06/11 05:10:57;;;;;;;17.70;6.00;;;15.80;1.00;;;;;;4963207;28;20117;-86
2022/06/11 05:13:22;;;;;;;16.63;5.30;;;15.90;1.00;;;;;;4965185;28;20053;-86
2022/06/11 05:15:52;;;;;;;12.30;4.82;;;15.90;1.00;;;;;;4964248;28;20035;-86
2022/06/11 05:18:19;;;;;;;13.38;4.60;;;16.00;1.00;;;;;;4972612;28;20061;-85
2022/06/11 05:20:45;;;;;;;15.10;5.15;;;16.00;1.00;;;;;;4961790;28;20057;-86
2022/06/11 05:23:12;;;;;;;16.05;4.43;;;16.00;1.00;;;;;;4970883;28;20050;-86
2022/06/11 05:25:39;;;;;;;14.10;4.90;;;16.10;1.00;;;;;;4986948;28;20432;-86
2022/06/11 05:28:13;;;;;;;15.68;4.80;;;16.10;1.00;;;;;;4944086;28;20132;-86
2022/06/11 05:30:42;;;;;;;12.63;4.47;;;16.20;1.00;;;;;;4988382;28;20150;-86
2022/06/11 05:33:09;;;;;;;12.65;4.55;;;16.30;1.00;;;;;;4989032;28;20054;-86
2022/06/11 05:35:35;;;;;;;14.18;5.40;;;16.40;1.00;;;;;;4942823;28;20516;-86
2022/06/11 05:38:05;;;;;;;11.77;4.93;;;16.30;1.00;;;;;;4959877;28;20585;-86
2022/06/11 05:40:34;;;;;;;16.98;4.97;;;16.40;1.00;;;;;;4987357;28;20054;-86
2022/06/11 05:43:00;;;;;;;16.20;5.30;;;16.40;1.00;;;;;;4973071;28;20058;-86
2022/06/11 05:45:37;;;;;;;17.83;4.88;;;16.50;99.90;;;;;;4973171;28;21307;-86
2022/06/11 05:48:07;;;;;;;16.52;5.38;;;16.60;99.90;;;;;;4962125;28;21033;-86
2022/06/11 05:50:37;;;;;;;14.57;5.28;;;16.60;99.90;;;;;;4959370;28;20039;-86
2022/06/11 05:53:05;;;;;;;16.45;4.95;;;16.60;99.90;;;;;;4957989;28;20053;-85
2022/06/11 05:55:34;;;;;;;19.33;5.22;;;16.70;99.90;;;;;;4977807;28;20153;-86
2022/06/11 05:58:10;;;;;;;17.60;5.07;;;16.60;99.90;;;;;;4971865;28;20073;-86
2022/06/11 06:00:36;;;;;;;16.65;4.72;;;16.80;99.90;;;;;;4962722;28;20082;-86
2022/06/11 06:03:02;;;;;;;19.80;5.28;;;16.90;99.90;;;;;;4969600;28;20061;-86
2022/06/11 06:05:30;;;;;;;19.08;5.40;;;17.00;99.90;;;;;;4954021;28;20043;-86
2022/06/11 06:07:56;;;;;;;19.17;5.15;;;16.90;99.90;;;;;;4968861;28;20061;-86
2022/06/11 06:10:23;;;;;;;20.83;5.80;;;16.90;99.90;;;;;;4960619;28;20047;-86
2022/06/11 06:12:50;;;;;;;21.35;5.30;;;16.90;99.90;;;;;;4987170;28;20035;-86
2022/06/11 06:15:22;;;;;;;18.48;5.05;;;16.90;99.90;;;;;;4973965;28;20046;-86
2022/06/11 06:17:54;;;;;;;16.30;4.90;;;16.90;99.90;;;;;;4957671;28;20106;-86
2022/06/11 06:20:22;;;;;;;19.10;5.07;;;16.90;99.90;;;;;;4985688;28;20586;-86
2022/06/11 06:22:49;;;;;;;19.77;5.05;;;17.10;99.90;;;;;;4989187;28;20133;-85
2022/06/11 06:25:17;;;;;;;17.48;4.80;;;17.30;99.90;;;;;;4972172;28;20137;-86
2022/06/11 06:27:46;;;;;;;18.17;5.18;;;17.40;99.90;;;;;;4955916;28;20423;-86
2022/06/11 06:30:13;;;;;;;16.63;5.15;;;17.40;99.90;;;;;;4942005;28;20046;-85
2022/06/11 06:32:39;;;;;;;20.98;5.53;;;17.20;99.90;;;;;;4985815;28;20042;-86
2022/06/11 06:35:05;;;;;;;21.95;5.68;;;17.30;99.90;;;;;;4957310;28;20061;-86
2022/06/11 06:37:33;;;;;;;21.88;5.38;;;17.20;99.90;;;;;;4964555;28;20060;-86
2022/06/11 06:40:01;;;;;;;20.33;5.72;;;17.40;99.90;;;;;;4960270;28;20481;-86
2022/06/11 06:42:27;;;;;;;16.92;5.55;;;17.40;99.90;;;;;;4969864;28;20138;-86
2022/06/11 06:44:56;;;;;;;23.27;5.50;;;17.40;99.90;;;;;;4963031;28;20586;-85
2022/06/11 06:47:21;;;;;;;25.17;5.18;;;17.60;99.90;;;;;;4978133;28;20061;-86
2022/06/11 06:49:50;;;;;;;20.27;5.75;;;17.80;99.90;;;;;;4964054;28;20465;-85
2022/06/11 06:52:16;;;;;;;23.13;5.55;;;17.80;99.90;;;;;;4985812;28;20070;-86
2022/06/11 06:54:42;;;;;;;18.13;5.53;;;17.80;99.90;;;;;;4953863;28;20201;-85
2022/06/11 06:57:07;;;;;;;20.15;5.50;;;17.90;99.90;;;;;;4954158;28;20055;-85
2022/06/11 06:59:33;;;;;;;19.77;5.47;;;18.00;99.90;;;;;;4985118;28;20122;-86
2022/06/11 07:01:59;;;;;;;21.63;5.85;;;18.00;99.90;;;;;;4969985;28;20042;-86
2022/06/11 07:04:28;;;;;;;23.60;5.60;;;18.00;99.90;;;;;;4957987;28;20050;-86
2022/06/11 07:06:54;;;;;;;19.08;5.20;;;18.20;99.90;;;;;;4973843;28;20042;-85
2022/06/11 07:09:23;;;;;;;23.83;5.85;;;18.20;99.90;;;;;;4955830;28;20035;-86
2022/06/11 07:11:52;;;;;;;24.33;5.53;;;18.10;99.90;;;;;;4955829;28;20058;-85
2022/06/11 07:14:22;;;;;;;18.85;6.05;;;18.10;99.90;;;;;;4973491;28;20047;-85
2022/06/11 07:16:51;;;;;;;25.67;6.30;;;18.30;99.90;;;;;;4964815;28;20113;-85
2022/06/11 07:19:27;;;;;;;20.35;5.57;;;18.40;99.90;;;;;;4959603;28;20055;-86
2022/06/11 07:21:57;;;;;;;23.45;6.00;;;18.30;99.90;;;;;;4969937;28;20482;-86
2022/06/11 07:24:27;;;;;;;22.00;5.47;;;18.50;99.90;;;;;;4976169;28;20077;-85
2022/06/11 07:27:01;;;;;;;19.88;5.60;;;18.50;99.90;;;;;;4953488;28;20058;-85
2022/06/11 07:29:48;;;;;;;20.48;5.50;;;18.50;99.90;;;;;;4987033;28;20047;-85
2022/06/11 07:32:19;;;;;;;16.88;4.97;;;18.50;99.90;;;;;;4986661;28;20125;-85
2022/06/11 07:34:45;;;;;;;21.83;5.00;;;18.60;99.90;;;;;;4979716;28;20042;-86
2022/06/11 07:37:14;;;;;;;17.67;5.53;;;18.90;99.90;;;;;;4965532;28;20504;-87
2022/06/11 07:39:40;;;;;;;20.35;5.13;;;19.10;99.90;;;;;;4993190;28;20058;-88
2022/06/11 07:42:07;;;;;;;20.15;5.10;;;19.30;99.90;;;;;;4964081;28;20046;-87
2022/06/11 07:44:35;;;;;;;15.45;4.82;;;19.30;99.90;;;;;;4963224;28;20114;-88
2022/06/11 07:47:05;;;;;;;20.95;5.18;;;19.20;99.90;;;;;;4965595;28;20557;-88
2022/06/11 07:49:31;;;;;;;23.88;5.28;;;19.50;99.90;;;;;;4978641;28;20408;-87
2022/06/11 07:51:57;;;;;;;22.75;6.20;;;19.50;99.90;;;;;;4967363;28;20449;-88
2022/06/11 07:54:26;;;;;;;25.67;5.07;;;19.90;99.90;;;;;;4979160;28;20042;-88
2022/06/11 07:56:52;;;;;;;22.85;5.65;;;19.70;99.90;;;;;;4978596;28;20043;-88
2022/06/11 07:59:17;;;;;;;18.42;4.95;;;20.10;99.90;;;;;;4965241;28;20481;-88
2022/06/11 08:01:46;;;;;;;17.40;4.93;;;20.30;99.90;;;;;;4961074;28;20046;-88
2022/06/11 08:04:12;;;;;;;20.50;5.35;;;20.20;66.60;;;;;;4964658;28;20054;-86
2022/06/11 08:06:38;;;;;;;19.30;4.82;;;20.80;59.60;;;;;;4964956;28;20062;-88
2022/06/11 08:09:04;;;;;;;19.45;5.00;;;20.30;56.90;;;;;;4963347;28;20101;-88
2022/06/11 08:11:29;;;;;;;19.90;5.57;;;20.00;74.00;;;;;;4967471;28;20228;-88
2022/06/11 08:13:55;;;;;;;21.58;5.50;;;20.30;84.20;;;;;;4965848;28;20042;-88
2022/06/11 08:16:21;;;;;;;15.48;4.75;;;20.50;60.80;;;;;;4963106;28;20049;-87
2022/06/11 08:18:50;;;;;;;21.02;5.07;;;20.20;69.80;;;;;;4963198;28;20694;-88
2022/06/11 08:21:16;;;;;;;19.10;4.97;;;20.10;55.50;;;;;;4969362;28;20030;-87
2022/06/11 08:23:50;;;;;;;18.60;5.53;;;19.60;5.80;;;;;;4967549;28;20042;-87
2022/06/11 08:26:16;;;;;;;22.35;4.82;;;19.40;13.00;;;;;;4992502;28;20129;-88
2022/06/11 08:28:45;;;;;;;19.75;5.25;;;19.30;99.90;;;;;;4963043;28;20136;-86
2022/06/11 08:31:14;;;;;;;16.70;4.00;;;19.70;99.90;;;;;;4971468;28;20043;-87
2022/06/11 08:33:39;;;;;;;22.92;5.20;;;19.90;14.10;;;;;;4965461;28;20054;-88
2022/06/11 08:36:08;;;;;;;19.40;5.22;;;20.10;99.90;;;;;;4960102;28;20046;-88
2022/06/11 08:38:34;;;;;;;18.73;4.53;;;20.30;37.10;;;;;;4960106;28;20066;-88
2022/06/11 08:41:21;;;;;;;15.40;4.65;;;20.50;28.30;;;;;;4982750;28;20429;-87
2022/06/11 08:44:01;;;;;;;14.48;4.15;;;20.10;77.10;;;;;;4977963;28;20089;-87
2022/06/11 08:46:32;;;;;;;18.27;4.30;;;20.30;1.00;;;;;;4961312;28;20054;-86
2022/06/11 08:49:04;;;;;;;17.50;4.90;;;20.50;46.40;;;;;;4981434;28;20054;-87
2022/06/11 08:51:50;;;;;;;18.02;4.80;;;20.50;14.10;;;;;;4978264;28;20096;-87
2022/06/11 08:54:33;;;;;;;20.45;4.40;;;20.20;1.00;;;;;;4963963;28;20068;-87
2022/06/11 08:57:06;;;;;;;18.60;4.05;;;20.00;1.00;;;;;;4963292;28;20178;-87
2022/06/11 09:00:02;;;;;;;19.90;4.13;;;20.30;39.20;;;;;;4966323;28;20094;-87
2022/06/11 09:02:43;;;;;;;16.73;4.45;;;20.00;1.00;;;;;;4960114;28;20137;-86
2022/06/11 09:05:30;;;;;;;19.60;4.60;;;19.90;1.00;;;;;;4963233;28;20101;-87
2022/06/11 09:08:22;;;;;;;22.05;4.65;;;19.80;1.00;;;;;;4962276;28;20113;-88
2022/06/11 09:11:28;;;;;;;17.00;3.95;;;19.70;56.60;;;;;;4980968;28;20047;-87
2022/06/11 09:14:26;;;;;;;11.88;3.58;;;19.40;1.00;;;;;;4993811;28;20047;-87
2022/06/11 09:17:11;;;;;;;14.90;3.90;;;20.30;35.20;;;;;;4959720;28;20037;-87
2022/06/11 09:19:58;;;;;;;15.82;4.45;;;20.90;1.00;;;;;;4987141;28;20181;-88
2022/06/11 09:23:13;;;;;;;11.23;3.15;;;21.20;1.00;;;;;;4963340;28;20045;-88
2022/06/11 09:26:13;;;;;;;12.73;3.60;;;21.20;1.00;;;;;;4989229;28;20133;-87
2022/06/11 09:29:13;;;;;;;12.60;3.33;;;21.30;1.00;;;;;;4962786;28;20043;-86
2022/06/11 09:31:59;;;;;;;14.25;3.30;;;21.70;1.00;;;;;;4993174;28;20348;-87
2022/06/11 09:34:33;;;;;;;11.85;3.28;;;21.30;1.00;;;;;;4978180;28;20062;-87
2022/06/11 09:37:18;;;;;;;11.52;3.03;;;20.70;1.00;;;;;;4966724;28;20117;-87
2022/06/11 09:40:31;;;;;;;12.32;3.17;;;20.70;1.00;;;;;;4993325;28;20038;-88
2022/06/11 09:43:23;;;;;;;15.52;3.42;;;21.00;1.00;;;;;;4943945;28;20233;-87
2022/06/11 09:46:12;;;;;;;11.80;3.30;;;21.10;1.00;;;;;;4992297;28;20077;-87
2022/06/11 09:48:44;;;;;;;15.20;3.20;;;21.20;1.00;;;;;;4994948;28;20505;-87
2022/06/11 09:51:38;;;;;;;12.60;3.50;;;21.40;1.00;;;;;;4991827;28;20478;-87
2022/06/11 09:54:47;;;;;;;9.35;3.42;;;21.30;1.00;;;;;;4987509;28;20157;-87
2022/06/11 09:57:45;;;;;;;15.18;3.38;;;21.50;1.00;;;;;;4962313;28;20498;-87
2022/06/11 10:00:28;;;;;;;10.60;3.08;;;21.60;1.00;;;;;;4964824;28;20528;-87
2022/06/11 10:03:29;;;;;;;11.48;3.15;;;21.80;1.00;;;;;;4977614;28;20494;-87
2022/06/11 10:06:14;;;;;;;11.75;2.85;;;21.80;1.00;;;;;;4966517;28;20067;-87
2022/06/11 10:08:49;;;;;;;17.07;3.40;;;21.80;1.00;;;;;;4989918;28;20074;-87
2022/06/11 10:11:44;;;;;;;12.45;2.80;;;21.80;1.00;;;;;;4991696;28;20042;-88
2022/06/11 10:14:53;;;;;;;14.75;2.90;;;21.80;1.00;;;;;;4971826;28;20126;-86
2022/06/11 10:17:37;;;;;;;12.18;2.97;;;21.90;1.00;;;;;;4964993;28;20043;-87
2022/06/11 10:20:13;;;;;;;11.45;2.80;;;21.70;1.00;;;;;;4994384;28;20497;-87
2022/06/11 10:22:48;;;;;;;10.40;2.90;;;20.90;1.00;;;;;;4964924;28;20474;-88
2022/06/11 10:25:30;;;;;;;9.23;2.83;;;20.70;1.00;;;;;;4966101;28;20043;-87
2022/06/11 10:28:08;;;;;;;9.73;2.70;;;20.70;1.00;;;;;;4959651;28;20517;-87
2022/06/11 10:30:41;;;;;;;11.18;2.78;;;21.00;1.00;;;;;;4990433;28;20047;-88
2022/06/11 10:33:14;;;;;;;9.57;3.10;;;21.30;1.00;;;;;;4961569;28;20034;-87
2022/06/11 10:35:47;;;;;;;12.98;3.70;;;21.80;1.00;;;;;;4965431;28;20038;-87
2022/06/11 10:38:33;;;;;;;11.70;3.35;;;21.60;1.00;;;;;;4967120;28;20461;-88
2022/06/11 10:41:09;;;;;;;11.60;2.85;;;21.30;1.00;;;;;;4962899;28;20561;-88
2022/06/11 10:43:50;;;;;;;11.18;3.33;;;21.50;1.00;;;;;;4963324;28;20534;-88
2022/06/11 10:46:17;;;;;;;12.82;3.38;;;21.80;1.00;;;;;;4959066;28;20130;-88
2022/06/11 10:48:46;;;;;;;12.15;3.00;;;21.70;1.00;;;;;;4961930;28;20247;-87
2022/06/11 10:51:33;;;;;;;12.68;3.17;;;21.70;1.00;;;;;;4990460;28;20137;-88
2022/06/11 10:54:14;;;;;;;10.00;3.40;;;22.10;1.00;;;;;;4995684;28;20131;-88
2022/06/11 10:56:47;;;;;;;11.40;2.97;;;21.70;1.00;;;;;;4975415;28;20041;-89
2022/06/11 10:59:41;;;;;;;11.95;2.90;;;21.70;1.00;;;;;;4992940;28;20047;-88
2022/06/11 11:02:25;;;;;;;13.23;2.50;;;22.30;1.00;;;;;;4963425;28;20038;-88
2022/06/11 11:05:06;;;;;;;39.00;13.60;;;22.30;1.00;;;;;;4963931;28;20047;-88
2022/06/11 11:07:50;;;;;;;11.07;2.78;;;22.70;1.00;;;;;;4965430;28;20093;-89
2022/06/11 11:10:25;;;;;;;10.88;2.80;;;23.00;1.00;;;;;;4974930;28;20045;-89
2022/06/11 11:12:55;;;;;;;9.65;3.13;;;22.50;1.00;;;;;;4966524;28;20455;-89
2022/06/11 11:15:29;;;;;;;12.48;2.67;;;22.50;1.00;;;;;;4964966;28;20117;-89
2022/06/11 11:18:00;;;;;;;13.15;3.30;;;22.60;1.00;;;;;;4980214;28;20576;-88
2022/06/11 11:20:40;;;;;;;11.52;3.10;;;22.80;1.00;;;;;;4964707;28;20053;-88
2022/06/11 11:23:17;;;;;;;10.55;2.67;;;22.60;1.00;;;;;;4980274;28;20154;-88
2022/06/11 11:26:06;;;;;;;10.85;3.20;;;22.90;1.00;;;;;;4990434;28;20047;-89
2022/06/11 11:29:02;;;;;;;9.45;2.90;;;23.20;1.00;;;;;;4995496;28;20128;-89
2022/06/11 11:31:39;;;;;;;10.10;2.67;;;23.60;1.00;;;;;;4979784;28;20035;-88
2022/06/11 11:34:33;;;;;;;10.40;2.60;;;23.80;1.00;;;;;;4980636;28;20086;-88
2022/06/11 11:37:24;;;;;;;10.90;2.70;;;23.60;99.90;;;;;;4953930;28;20055;-89
2022/06/11 11:40:00;;;;;;;13.65;3.20;;;24.10;1.00;;;;;;4990949;28;20061;-88
2022/06/11 11:42:46;;;;;;;9.63;2.78;;;24.00;1.00;;;;;;4966250;28;20183;-88
2022/06/11 11:45:24;;;;;;;10.90;3.08;;;24.20;99.90;;;;;;4996428;28;20057;-88
2022/06/11 11:48:04;;;;;;;10.60;2.67;;;23.80;99.90;;;;;;4978809;28;20051;-88
2022/06/11 11:50:41;;;;;;;9.75;2.67;;;24.00;99.90;;;;;;4964324;28;20050;-88
2022/06/11 11:53:28;;;;;;;11.82;3.50;;;24.30;99.90;;;;;;4979499;28;20604;-88
2022/06/11 11:56:17;;;;;;;9.75;3.08;;;23.50;99.90;;;;;;4977055;28;20049;-89
2022/06/11 11:58:50;;;;;;;10.63;3.13;;;23.30;99.90;;;;;;4972952;28;20054;-89
2022/06/11 12:01:17;;;;;;;15.07;3.08;;;23.30;1.00;;;;;;4996363;28;20046;-89
2022/06/11 12:04:04;;;;;;;10.77;3.10;;;23.50;1.00;;;;;;4965492;28;20047;-88
2022/06/11 12:06:36;;;;;;;10.25;2.90;;;24.50;1.00;;;;;;4979311;28;20141;-89
2022/06/11 12:09:07;;;;;;;11.75;3.13;;;23.70;99.90;;;;;;4966270;28;20050;-89
2022/06/11 12:11:37;;;;;;;11.40;3.10;;;23.50;1.00;;;;;;4967130;28;20176;-89
2022/06/11 12:14:17;;;;;;;11.40;3.20;;;23.10;99.90;;;;;;4967418;28;20042;-89
2022/06/11 12:16:59;;;;;;;12.65;3.45;;;22.60;99.90;;;;;;4978374;28;20049;-90
2022/06/11 12:19:32;;;;;;;12.57;3.05;;;21.80;99.90;;;;;;4993421;28;20503;-89
2022/06/11 12:22:04;;;;;;;12.13;3.08;;;21.60;99.90;;;;;;4984986;28;20053;-88
2022/06/11 12:24:43;;;;;;;10.38;2.90;;;21.20;99.90;;;;;;4965847;28;20403;-89
2022/06/11 12:27:18;;;;;;;11.02;2.75;;;21.30;99.90;;;;;;4977778;28;20528;-90
2022/06/11 12:30:01;;;;;;;12.50;3.10;;;21.20;1.00;;;;;;4963488;28;20443;-89
2022/06/11 12:32:35;;;;;;;;;;;20.80;99.90;;;;;;4980134;28;20398;-89
2022/06/11 12:35:06;;;;;;;10.88;2.58;;;20.90;99.90;;;;;;4971452;28;19921;-88
2022/06/11 12:37:54;;;;;;;11.02;2.72;;;21.90;1.00;;;;;;4968785;28;20034;-89
2022/06/11 12:40:57;;;;;;;10.50;2.63;;;21.50;1.00;;;;;;4992426;28;20105;-89
2022/06/11 12:43:29;;;;;;;8.60;2.88;;;21.00;99.90;;;;;;4993627;28;20076;-90
2022/06/11 12:46:26;;;;;;;12.60;2.65;;;21.30;99.90;;;;;;4995526;28;20222;-89
2022/06/11 12:49:12;;;;;;;8.20;2.30;;;21.30;99.90;;;;;;4978093;28;20042;-89
2022/06/11 12:51:49;;;;;;;13.65;2.90;;;21.00;99.90;;;;;;4962418;28;20046;-89
2022/06/11 12:54:38;;;;;;;9.85;2.53;;;21.20;99.90;;;;;;4964101;28;20121;-90
2022/06/11 12:57:20;;;;;;;9.20;2.70;;;21.00;99.90;;;;;;4960564;28;20516;-90
2022/06/11 13:00:37;;;;;;;12.57;3.15;;;21.80;99.90;;;;;;4957792;28;20557;-90
2022/06/11 13:03:15;;;;;;;10.82;3.20;;;23.00;1.00;;;;;;4957823;28;20500;-91
2022/06/11 13:06:08;;;;;;;10.52;2.67;;;23.40;1.00;;;;;;4967282;28;20499;-90
2022/06/11 13:08:52;;;;;;;9.90;2.58;;;23.10;1.00;;;;;;4963657;28;20074;-90
2022/06/11 13:11:31;;;;;;;14.23;3.10;;;22.20;99.90;;;;;;4974365;28;20047;-90
2022/06/11 13:14:29;;;;;;;7.13;2.60;;;21.60;99.90;;;;;;4972422;28;20661;-91
2022/06/11 13:17:24;;;;;;;9.98;2.70;;;22.10;99.90;;;;;;4959077;28;20086;-90
2022/06/11 13:20:34;;;;;;;11.35;3.03;;;22.10;99.90;;;;;;4963608;28;20112;-90
2022/06/11 13:23:19;;;;;;;9.20;2.95;;;22.20;99.90;;;;;;4993524;28;20039;-90